Vail, CO (81658)

8:09 AM MDT on September 16, 2014 (GMT -0600)
WildRidge - Neighborhood | Change Station
CLOSE
Current Station
Personal Weather Station
Location: Avon, CO
Elevation: 8156 ft
Nearby Weather Stations

Elev 8156 ft 39.66 °N, 106.55 °W | Updated 4 minutes ago

Clear
Clear
48.0 °F
Feels Like 48 °F
N
0.0
Wind Variable Wind from South
Gusts 1.0 mph

Today
High -- | Low -- °F
--% Chance of Precip.
Yesterday
High -- | Low -- °F
Precip. -- in
6:48 AM 7:12 PM
Last Quarter, 45% visible
Pressure 30.42 in
Visibility 10.0 miles
Clouds Clear
Windchill 48 °F
Dew Point 39 °F
Humidity 70%
Rainfall 0.00 in
Snow Depth 1 in , 0 in , 1 in
UV 1 out of 12
Pollen 8.10 out of 12
Air Quality Not available.
Flu Activity Not available.
METAR KEGE 161350Z 00000KT 10SM SKC 06/04 A3042

More Conditions Fewer Conditions

Pressure 30.42 in
Visibility 10.0 miles
Clouds Clear
Windchill 48 °F
Dew Point 39 °F
Humidity 70%
Rainfall 0.00 in
Snow Depth 1 in , 0 in , 1 in
UV 1 out of 12
Pollen 8.10 out of 12
Air Quality Not available.
Flu Activity Not available.
METAR KEGE 161350Z 00000KT 10SM SKC 06/04 A3042

More Conditions Fewer Conditions

10-Day Weather Forecast

Almanac

Astronomy

Sep. 16, 2014 Rise Set
Actual Time 6:48 AM MDT 7:12 PM MDT
Civil Twilight 6:21 AM MDT 7:39 PM MDT
Nautical Twilight 5:49 AM MDT 8:11 PM MDT
Astronomical Twilight 5:16 AM MDT 8:43 PM MDT
Moon 12:01 AM MDT 2:37 PM MDT
Length of Visible Light 13h 18m
Length of Day
12h 24m
Tomorrow will be 2m 34s shorter.
Last Quarter, 45% of the Moon is Illuminated
Today
Last Quarter
Sep 24
New
Oct 1
First Quarter
Oct 8
Full
Oct 15
Last Quarter

Today's Extremes

State Highs State Lows

Community

WunderPhotos

Upload Photos

1,753,780 photos uploaded!

Nearby

Snow Depth

Station Depth Elevation
Bison Lake 1 in 10880 ft
Roach 0 in 9700 ft
Ivanhoe 1 in 10400 ft
Stillwater Creek 0 in 8720 ft
Upper Rio Grande 0 in 9400 ft

Earthquake Activity

City Distance Mag. Time & Date
No recent earthquake activity has been reported nearby.
Minimum magnitude displayed is 2.5.

Coastal Water Temperatures

Place Temperature
No Stations Reporting

Nearby Weather Stations